createdAt,value
2022-12-04T00:00:36.584Z,30.10
2022-12-04T00:06:13.162Z,27.80
2022-12-04T00:11:19.165Z,24.80
2022-12-04T00:16:26.109Z,25.30
2022-12-04T00:26:31.858Z,20.30
2022-12-04T00:31:35.012Z,17.80
2022-12-04T00:36:37.951Z,32.00
2022-12-04T00:41:40.640Z,27.10
2022-12-04T00:46:43.362Z,27.60
2022-12-04T00:51:46.092Z,21.60
2022-12-04T00:56:48.785Z,20.50
2022-12-04T01:01:51.564Z,18.70
2022-12-04T01:06:54.365Z,17.90
2022-12-04T01:11:57.165Z,27.50
2022-12-04T01:16:59.916Z,26.10
2022-12-04T01:22:03.810Z,22.40
2022-12-04T01:27:06.695Z,24.50
2022-12-04T01:32:09.533Z,22.60
2022-12-04T01:37:12.401Z,25.80
2022-12-04T01:42:15.898Z,25.60
2022-12-04T01:47:18.581Z,21.10
2022-12-04T01:52:26.500Z,25.10
2022-12-04T01:57:32.729Z,20.10
2022-12-04T02:02:37.699Z,14.20
2022-12-04T02:07:43.403Z,24.90
2022-12-04T02:13:15.024Z,24.20
2022-12-04T02:18:30.212Z,23.10
2022-12-04T02:23:41.922Z,22.00
2022-12-04T02:29:21.779Z,21.40
2022-12-04T02:34:52.535Z,23.50
2022-12-04T02:40:05.078Z,19.40
2022-12-04T02:45:20.470Z,20.10
2022-12-04T02:50:24.416Z,15.80
2022-12-04T02:55:35.599Z,23.60
2022-12-04T03:00:43.033Z,23.80
2022-12-04T03:05:58.003Z,21.50
2022-12-04T03:11:01.606Z,17.30
2022-12-04T03:16:09.845Z,21.00
2022-12-04T03:21:25.125Z,15.00
2022-12-04T03:26:55.731Z,25.60
2022-12-04T03:32:11.824Z,23.60
2022-12-04T03:37:18.529Z,16.30
2022-12-04T03:42:32.262Z,18.30
2022-12-04T03:47:46.520Z,19.40
2022-12-04T03:52:58.854Z,22.30
2022-12-04T03:58:07.591Z,24.90
2022-12-04T04:03:17.153Z,21.40
2022-12-04T04:08:28.121Z,17.60
2022-12-04T04:13:59.905Z,14.50
2022-12-04T04:19:22.500Z,14.80
2022-12-04T04:24:32.317Z,18.40
2022-12-04T04:29:36.009Z,23.80
2022-12-04T04:34:38.673Z,21.20
2022-12-04T04:39:47.593Z,20.00
2022-12-04T04:45:16.718Z,15.70
2022-12-04T04:50:20.564Z,26.10
2022-12-04T04:55:23.971Z,20.60
2022-12-04T05:00:26.656Z,12.40
2022-12-04T05:05:29.485Z,15.80
2022-12-04T05:10:32.175Z,20.00
2022-12-04T05:15:34.879Z,22.20
2022-12-04T05:20:41.046Z,17.80
2022-12-04T05:25:43.743Z,18.20
2022-12-04T05:30:46.474Z,21.90
2022-12-04T05:36:05.124Z,23.80
2022-12-04T05:41:08.302Z,23.00
2022-12-04T05:46:11.092Z,15.60
2022-12-04T05:51:14.074Z,14.70
2022-12-04T05:56:16.958Z,17.10
2022-12-04T06:01:23.035Z,24.70
2022-12-04T06:06:26.738Z,18.50
2022-12-04T06:11:32.718Z,18.30
2022-12-04T06:16:38.870Z,17.10
2022-12-04T06:21:43.764Z,24.00
2022-12-04T06:27:11.087Z,17.10
2022-12-04T06:32:09.535Z,14.10
2022-12-04T06:37:12.445Z,15.30
2022-12-04T06:42:15.449Z,20.00
2022-12-04T06:47:18.520Z,19.70
2022-12-04T06:52:21.314Z,19.70
2022-12-04T06:57:24.001Z,14.30
2022-12-04T07:02:26.773Z,9.80
2022-12-04T07:07:29.874Z,24.40
2022-12-04T07:12:32.758Z,18.90
2022-12-04T07:17:35.468Z,17.00
2022-12-04T07:22:38.159Z,13.90
2022-12-04T07:27:40.927Z,18.90
2022-12-04T07:32:43.616Z,17.60
2022-12-04T07:37:46.357Z,12.80
2022-12-04T07:42:49.100Z,16.80
2022-12-04T07:47:51.991Z,18.60
2022-12-04T07:52:54.779Z,17.70
2022-12-04T07:57:57.560Z,11.20
2022-12-04T08:03:00.256Z,17.90
2022-12-04T08:08:03.247Z,17.20
2022-12-04T08:13:06.182Z,11.20
2022-12-04T08:18:08.875Z,12.90
2022-12-04T08:23:12.038Z,21.60
2022-12-04T08:28:14.776Z,19.70
2022-12-04T08:33:17.591Z,15.30
2022-12-04T08:38:20.393Z,13.10
2022-12-04T08:43:23.193Z,20.80
2022-12-04T08:48:26.406Z,18.30
2022-12-04T08:53:29.207Z,12.90
2022-12-04T08:58:32.062Z,13.90
2022-12-04T09:03:35.323Z,18.70
2022-12-04T09:08:38.852Z,11.20
2022-12-04T09:13:42.975Z,15.80
2022-12-04T09:18:46.219Z,15.90
2022-12-04T09:23:49.259Z,15.90
2022-12-04T09:28:53.106Z,23.70
2022-12-04T09:33:58.783Z,19.80
2022-12-04T09:39:01.687Z,11.80
2022-12-04T09:44:25.380Z,20.70
2022-12-04T09:49:38.516Z,21.40
2022-12-04T09:54:43.486Z,14.40
2022-12-04T09:59:46.461Z,16.50
2022-12-04T10:04:49.576Z,18.90
2022-12-04T10:10:08.556Z,19.50
2022-12-04T10:15:13.989Z,12.30
2022-12-04T10:20:38.546Z,16.00
2022-12-04T10:25:42.874Z,19.90
2022-12-04T10:30:48.105Z,20.40
2022-12-04T10:35:54.120Z,17.50
2022-12-04T10:41:14.849Z,16.90
2022-12-04T10:46:27.493Z,19.90
2022-12-04T10:51:41.315Z,16.50
2022-12-04T10:56:59.090Z,15.40
2022-12-04T11:02:24.505Z,14.20
2022-12-04T11:07:45.505Z,20.60
2022-12-04T11:13:03.506Z,22.20
2022-12-04T11:18:15.725Z,19.70
2022-12-04T11:23:19.141Z,23.60
2022-12-04T11:28:41.211Z,19.10
2022-12-04T11:33:48.398Z,18.60
2022-12-04T11:38:53.526Z,16.70
2022-12-04T11:44:00.353Z,15.50
2022-12-04T11:49:04.073Z,20.60
2022-12-04T11:54:31.011Z,15.50
2022-12-04T11:59:58.216Z,14.30
2022-12-04T12:05:04.309Z,15.80
2022-12-04T12:10:44.206Z,17.20
2022-12-04T12:15:59.801Z,14.50
2022-12-04T12:21:34.143Z,16.80
2022-12-04T12:27:03.170Z,12.70
2022-12-04T12:32:20.758Z,11.70
2022-12-04T12:37:39.865Z,20.30
2022-12-04T12:42:58.477Z,15.20
2022-12-04T12:48:12.401Z,14.50
2022-12-04T12:53:25.352Z,14.40
2022-12-04T12:58:43.779Z,18.00
2022-12-04T13:03:58.569Z,16.20
2022-12-04T13:09:04.760Z,14.90
2022-12-04T13:14:11.440Z,14.00
2022-12-04T13:19:25.254Z,15.10
2022-12-04T13:24:52.613Z,15.50
2022-12-04T13:30:07.362Z,12.90
2022-12-04T13:35:28.768Z,14.20
2022-12-04T13:40:40.746Z,13.50
2022-12-04T13:45:46.417Z,15.20
2022-12-04T13:50:49.324Z,10.30
2022-12-04T13:55:56.881Z,12.30
2022-12-04T14:01:01.198Z,18.30
2022-12-04T14:06:16.544Z,15.10
2022-12-04T14:11:20.079Z,8.80
2022-12-04T14:16:36.614Z,12.70
2022-12-04T14:21:45.508Z,18.70
2022-12-04T14:27:10.791Z,14.50
2022-12-04T14:32:21.539Z,7.10
2022-12-04T14:37:27.964Z,12.00
2022-12-04T14:42:37.494Z,16.20
2022-12-04T14:48:17.260Z,14.60
2022-12-04T14:53:44.451Z,12.70
2022-12-04T14:58:47.365Z,12.40
2022-12-04T15:03:53.720Z,14.40
2022-12-04T15:09:19.053Z,13.00
2022-12-04T15:14:21.855Z,11.20
2022-12-04T15:19:24.572Z,13.10
2022-12-04T15:24:27.548Z,13.00
2022-12-04T15:29:33.925Z,13.00
2022-12-04T15:34:39.714Z,11.30
2022-12-04T15:39:42.927Z,12.50
2022-12-04T15:44:55.216Z,10.80
2022-12-04T15:50:13.621Z,14.50
2022-12-04T15:55:18.862Z,10.20
2022-12-04T16:00:21.680Z,10.60
2022-12-04T16:05:24.344Z,13.70
2022-12-04T16:10:33.324Z,12.60
2022-12-04T16:15:43.757Z,11.40
2022-12-04T16:20:46.578Z,12.90
2022-12-04T16:25:53.428Z,11.10
2022-12-04T16:30:56.487Z,10.10
2022-12-04T16:35:59.631Z,9.30
2022-12-04T16:41:04.643Z,10.70
2022-12-04T16:46:14.084Z,12.30
2022-12-04T16:51:20.255Z,12.10
2022-12-04T16:56:23.202Z,10.90
2022-12-04T17:01:38.684Z,10.30
2022-12-04T17:06:41.927Z,15.90
2022-12-04T17:11:45.779Z,12.50
2022-12-04T17:16:48.610Z,10.10
2022-12-04T17:21:51.524Z,9.90
2022-12-04T17:26:54.305Z,9.40
2022-12-04T17:31:57.150Z,12.20
2022-12-04T17:37:00.167Z,16.50
2022-12-04T17:42:03.111Z,13.20
2022-12-04T17:47:06.405Z,9.60
2022-12-04T17:52:10.015Z,11.70
2022-12-04T17:57:12.752Z,13.10
2022-12-04T18:02:15.693Z,9.30
2022-12-04T18:07:18.614Z,7.80
2022-12-04T18:12:21.335Z,12.40
2022-12-04T18:17:24.144Z,12.50
2022-12-04T18:22:27.709Z,8.10
2022-12-04T18:27:30.448Z,10.80
2022-12-04T18:32:33.312Z,12.30
2022-12-04T18:37:36.044Z,13.90
2022-12-04T18:42:38.835Z,9.30
2022-12-04T18:47:41.636Z,12.70
2022-12-04T18:52:44.747Z,12.30
2022-12-04T18:57:47.446Z,11.10
2022-12-04T19:02:50.192Z,12.50
2022-12-04T19:07:53.776Z,8.50
2022-12-04T19:12:56.611Z,8.50
2022-12-04T19:17:59.573Z,9.00
2022-12-04T19:23:02.356Z,11.60
2022-12-04T19:28:05.381Z,13.20
2022-12-04T19:33:08.108Z,9.80
2022-12-04T19:38:10.914Z,10.10
2022-12-04T19:43:13.682Z,10.40
2022-12-04T19:48:16.398Z,10.20
2022-12-04T19:53:19.368Z,7.80
2022-12-04T19:58:22.286Z,13.40
2022-12-04T20:03:25.209Z,11.20
2022-12-04T20:08:27.996Z,11.90
2022-12-04T20:13:30.987Z,11.90
2022-12-04T20:18:35.853Z,10.50
2022-12-04T20:23:42.733Z,8.50
2022-12-04T20:33:50.387Z,12.60
2022-12-04T20:38:55.422Z,10.80
2022-12-04T20:44:04.896Z,10.30
2022-12-04T20:49:13.395Z,14.10
2022-12-04T20:54:20.471Z,11.90
2022-12-04T20:59:24.635Z,11.10
2022-12-04T21:04:27.375Z,9.30
2022-12-04T21:09:31.002Z,12.40
2022-12-04T21:14:52.435Z,12.50
2022-12-04T21:19:55.340Z,8.70
2022-12-04T21:24:58.514Z,6.80
2022-12-04T21:30:02.281Z,14.20
2022-12-04T21:35:05.880Z,11.60
2022-12-04T21:40:09.137Z,7.90
2022-12-04T21:45:12.000Z,9.50
2022-12-04T21:50:14.713Z,11.90
2022-12-04T21:55:17.417Z,12.10
2022-12-04T22:00:20.165Z,7.70
2022-12-04T22:05:22.912Z,10.30
2022-12-04T22:10:25.657Z,10.00
2022-12-04T22:15:28.412Z,7.90
2022-12-04T22:20:31.172Z,10.20
2022-12-04T22:25:34.504Z,11.70
2022-12-04T22:30:37.203Z,10.40
2022-12-04T22:35:39.926Z,9.40
2022-12-04T22:40:42.618Z,11.80
2022-12-04T22:45:45.304Z,14.00
2022-12-04T22:51:21.352Z,14.20
2022-12-04T22:56:30.508Z,12.00
2022-12-04T23:01:34.368Z,19.20
2022-12-04T23:06:37.181Z,11.40
2022-12-04T23:11:40.691Z,10.40
2022-12-04T23:16:44.252Z,9.40
2022-12-04T23:21:53.409Z,16.80
2022-12-04T23:26:59.345Z,14.10
2022-12-04T23:32:02.089Z,13.50
2022-12-04T23:37:04.814Z,11.90
2022-12-04T23:42:07.645Z,16.90
2022-12-04T23:47:10.509Z,12.70
2022-12-04T23:52:13.354Z,8.90
2022-12-04T23:57:16.153Z,10.10
